Time;durP1;ratioP1;P1;durP2;ratioP2;P2;SDS_P1;SDS_P2;PMS_P1;PMS_P2;Temp;Humidity;BMP_temperature;BMP_pressure;BME280_temperature;BME280_humidity;BME280_pressure;Samples;Min_cycle;Max_cycle;Signal;HPM_P1;HPM_P2
2022/10/26 13:59:30;;;;;;;8.87;8.40;;;;;;;18.21;46.42;93401.25;5095814;27;20377;-68
2022/10/26 14:02:15;;;;;;;8.10;7.73;;;;;;;18.13;47.00;93404.66;5086698;28;20252;-67
2022/10/26 14:04:46;;;;;;;8.97;8.47;;;;;;;17.95;46.67;93402.22;5084163;28;20226;-68
2022/10/26 14:07:19;;;;;;;7.67;7.33;;;;;;;17.74;48.18;93398.56;5084197;28;20191;-67
2022/10/26 14:09:49;;;;;;;8.07;7.57;;;;;;;17.59;48.33;93394.41;5066788;28;20260;-67
2022/10/26 14:12:15;;;;;;;9.27;8.57;;;;;;;17.52;48.96;93400.16;5065741;28;20187;-67
2022/10/26 14:14:41;;;;;;;9.00;8.20;;;;;;;17.42;49.29;93397.72;5063874;28;20241;-67
2022/10/26 14:17:18;;;;;;;7.67;7.33;;;;;;;17.41;50.13;93404.09;5064124;28;20190;-70
2022/10/26 14:19:44;;;;;;;14.23;13.23;;;;;;;17.34;50.57;93400.28;5081022;28;20280;-68
2022/10/26 14:22:20;;;;;;;8.23;7.77;;;;;;;17.27;50.00;93400.72;5084663;28;20175;-68
2022/10/26 14:24:51;;;;;;;8.70;8.10;;;;;;;17.09;50.15;93387.69;5083475;28;20252;-68
2022/10/26 14:27:19;;;;;;;9.17;8.57;;;;;;;17.18;50.34;93397.22;5081965;28;20179;-68
2022/10/26 14:29:44;;;;;;;8.53;8.00;;;;;;;17.13;50.13;93402.63;5085110;28;20218;-66
2022/10/26 14:32:26;;;;;;;8.40;7.93;;;;;;;17.10;49.82;93397.16;5084963;28;20186;-67
2022/10/26 14:34:52;;;;;;;8.07;7.57;;;;;;;16.99;49.75;93393.19;5084961;28;20226;-67
2022/10/26 14:37:36;;;;;;;8.73;8.33;;;;;;;16.88;50.73;93389.22;5084990;28;20239;-67
2022/10/26 14:40:02;;;;;;;7.53;7.23;;;;;;;16.81;50.84;93400.16;5084446;28;20217;-69
2022/10/26 14:42:34;;;;;;;8.03;7.73;;;;;;;16.77;51.24;93388.66;5084296;28;20198;-68
2022/10/26 14:45:00;;;;;;;9.00;8.30;;;;;;;16.76;52.03;93399.50;5084226;28;20225;-69
2022/10/26 14:47:32;;;;;;;10.10;9.20;;;;;;;16.75;52.44;93401.38;5084692;28;20206;-68
2022/10/26 14:49:58;;;;;;;9.73;8.93;;;;;;;16.74;52.49;93405.09;5083873;28;20978;-68
2022/10/26 14:52:35;;;;;;;9.53;8.67;;;;;;;16.68;51.24;93418.66;5085658;28;20244;-67
2022/10/26 14:55:11;;;;;;;9.20;8.50;;;;;;;16.67;51.56;93415.25;5085130;28;20221;-67
2022/10/26 14:57:39;;;;;;;9.83;9.03;;;;;;;16.62;53.17;93410.09;5083858;28;20307;-67
2022/10/26 15:00:17;;;;;;;9.13;8.53;;;;;;;16.49;53.58;93418.00;5084745;28;20224;-67
2022/10/26 15:02:47;;;;;;;8.90;8.13;;;;;;;16.50;54.08;93415.06;5084834;28;20278;-67
2022/10/26 15:05:19;;;;;;;9.00;8.03;;;;;;;16.43;54.64;93414.66;5085118;28;20177;-67
2022/10/26 15:07:44;;;;;;;9.30;8.70;;;;;;;16.17;54.98;93400.44;5084837;28;20206;-68
2022/10/26 15:10:34;;;;;;;10.20;9.30;;;;;;;16.19;55.43;93413.31;5074976;28;20186;-67
2022/10/26 15:13:23;;;;;;;8.53;8.13;;;;;;;16.03;56.79;93418.09;5069993;28;20249;-67
2022/10/26 15:15:50;;;;;;;9.83;9.03;;;;;;;15.91;56.96;93415.91;5072221;28;20834;-67
2022/10/26 15:18:24;;;;;;;8.13;7.63;;;;;;;15.86;56.89;93423.91;5070471;28;20225;-66
2022/10/26 15:20:50;;;;;;;9.47;8.90;;;;;;;15.72;57.62;93425.72;5067883;28;20190;-66
2022/10/26 15:23:16;;;;;;;9.27;8.67;;;;;;;15.64;57.40;93423.00;5072232;28;20256;-67
2022/10/26 15:25:54;;;;;;;10.90;9.83;;;;;;;15.45;58.21;93417.78;5069900;28;20185;-67
2022/10/26 15:28:28;;;;;;;10.90;9.83;;;;;;;15.45;57.30;93425.69;5070042;28;20268;-66
2022/10/26 15:31:04;;;;;;;11.63;10.60;;;;;;;15.41;58.95;93429.16;5070968;28;20185;-67
2022/10/26 15:33:30;;;;;;;10.67;9.87;;;;;;;15.36;58.26;93435.25;5071025;28;20228;-68
2022/10/26 15:36:14;;;;;;;12.07;10.83;;;;;;;15.30;58.07;93433.00;5070359;28;20193;-68
2022/10/26 15:38:40;;;;;;;15.10;11.40;;;;;;;15.17;58.79;93428.44;5069731;28;20237;-68
2022/10/26 15:41:34;;;;;;;13.33;12.23;;;;;;;15.13;59.00;93438.00;5068673;28;20194;-68
2022/10/26 15:44:07;;;;;;;11.93;10.87;;;;;;;14.81;59.18;93430.03;5067965;28;20256;-69
2022/10/26 15:46:35;;;;;;;11.93;11.03;;;;;;;14.93;58.46;93449.56;5067364;28;20236;-70
2022/10/26 15:49:06;;;;;;;10.00;9.50;;;;;;;14.88;58.78;93446.25;5069317;28;20312;-69
2022/10/26 15:51:32;;;;;;;10.40;9.70;;;;;;;14.73;58.07;93456.94;5069459;28;20198;-70
2022/10/26 15:54:00;;;;;;;10.70;9.87;;;;;;;14.73;58.59;93465.63;5069644;28;20256;-70
2022/10/26 15:56:26;;;;;;;9.53;9.03;;;;;;;14.73;55.42;93470.06;5069496;28;20232;-70
2022/10/26 15:58:53;;;;;;;11.17;10.30;;;;;;;14.72;54.96;93464.06;5069233;28;20229;-68
2022/10/26 16:01:22;;;;;;;13.07;11.83;;;;;;;14.92;60.38;93460.38;5067717;28;20193;-70
2022/10/26 16:03:47;;;;;;;11.80;10.60;;;;;;;14.74;56.08;93469.03;5067792;28;20232;-71
2022/10/26 16:06:17;;;;;;;11.30;9.97;;;;;;;14.82;54.28;93478.91;5071204;28;20212;-70
2022/10/26 16:08:48;;;;;;;9.63;8.93;;;;;;;14.83;53.57;93475.22;5069757;28;20233;-71
2022/10/26 16:11:13;;;;;;;8.83;8.23;;;;;;;14.89;52.21;93461.72;5069111;28;20193;-68
2022/10/26 16:13:39;;;;;;;9.40;8.80;;;;;;;15.05;52.14;93464.94;5060776;28;20252;-69
2022/10/26 16:16:11;;;;;;;9.47;8.87;;;;;;;15.10;50.57;93473.53;5049589;28;20202;-68
2022/10/26 16:18:36;;;;;;;9.40;8.67;;;;;;;15.15;50.07;93472.66;5052163;28;20237;-68
2022/10/26 16:21:02;;;;;;;8.90;8.50;;;;;;;15.30;49.33;93475.84;5057994;28;20191;-67
2022/10/26 16:23:27;;;;;;;9.17;8.77;;;;;;;15.42;48.21;93480.72;5063282;28;20245;-68
2022/10/26 16:25:53;;;;;;;9.03;8.63;;;;;;;15.30;48.97;93481.13;5069937;28;20205;-68
2022/10/26 16:28:18;;;;;;;8.33;7.97;;;;;;;15.21;49.59;93488.09;5068752;28;20225;-68
2022/10/26 16:30:43;;;;;;;8.13;7.83;;;;;;;15.16;49.34;93480.28;5069620;28;20195;-68
2022/10/26 16:33:09;;;;;;;9.07;8.50;;;;;;;15.12;49.32;93473.22;5069330;28;20717;-69
2022/10/26 16:35:34;;;;;;;8.50;8.00;;;;;;;15.21;49.13;93492.56;5071134;28;20170;-68
2022/10/26 16:38:00;;;;;;;10.00;9.20;;;;;;;15.23;49.40;93495.69;5069854;28;20232;-68
2022/10/26 16:40:25;;;;;;;8.83;8.43;;;;;;;15.19;49.90;93500.75;5070571;28;20203;-67
2022/10/26 16:42:51;;;;;;;8.60;8.23;;;;;;;15.11;49.57;93503.25;5070657;28;20253;-68
2022/10/26 16:45:16;;;;;;;8.73;8.33;;;;;;;15.02;50.49;93510.22;5070584;28;20189;-67
2022/10/26 16:47:41;;;;;;;9.10;8.60;;;;;;;15.03;49.27;93511.75;5070541;28;20212;-68
2022/10/26 16:50:09;;;;;;;8.57;8.17;;;;;;;15.07;50.18;93513.53;5070644;28;20192;-67
2022/10/26 16:52:36;;;;;;;8.27;7.90;;;;;;;15.04;50.21;93515.94;5069780;28;20248;-69
2022/10/26 16:55:03;;;;;;;8.93;8.53;;;;;;;15.05;49.43;93517.53;5069912;28;20221;-68
2022/10/26 16:57:28;;;;;;;8.53;8.13;;;;;;;15.08;48.94;93516.97;5070037;28;20240;-68
2022/10/26 16:59:53;;;;;;;8.07;7.57;;;;;;;15.04;49.61;93518.56;5071168;28;20221;-68
2022/10/26 17:02:19;;;;;;;8.83;8.43;;;;;;;14.92;50.26;93526.09;5070595;28;20181;-70
2022/10/26 17:04:45;;;;;;;8.33;7.93;;;;;;;15.03;49.20;93514.41;5071447;28;20229;-71
2022/10/26 17:07:10;;;;;;;8.10;7.67;;;;;;;15.08;49.90;93533.50;5070479;28;20178;-72
2022/10/26 17:09:36;;;;;;;8.90;8.60;;;;;;;15.00;49.65;93514.97;5069634;28;20229;-71
2022/10/26 17:12:01;;;;;;;8.03;7.73;;;;;;;15.00;50.06;93533.38;5070238;28;20228;-71
2022/10/26 17:14:27;;;;;;;9.63;9.03;;;;;;;15.00;50.53;93528.09;5070414;28;20233;-70
2022/10/26 17:16:52;;;;;;;8.47;8.07;;;;;;;15.10;49.94;93533.22;5070202;28;20243;-71
2022/10/26 17:19:18;;;;;;;8.47;8.03;;;;;;;15.12;49.64;93539.00;5070022;28;20237;-70
2022/10/26 17:21:43;;;;;;;8.80;8.20;;;;;;;15.02;50.17;93532.00;5069713;28;20194;-71
2022/10/26 17:24:10;;;;;;;8.70;8.30;;;;;;;15.04;49.67;93543.03;5071793;28;20232;-71
2022/10/26 17:26:35;;;;;;;9.50;8.60;;;;;;;15.03;50.74;93548.59;5068662;28;20190;-70
2022/10/26 17:29:01;;;;;;;9.77;9.10;;;;;;;14.99;50.69;93547.59;5070150;28;20236;-70
2022/10/26 17:31:26;;;;;;;9.17;8.57;;;;;;;15.10;50.72;93543.75;5071218;28;20196;-71
2022/10/26 17:33:52;;;;;;;9.67;9.07;;;;;;;14.99;51.38;93547.59;5068697;28;20217;-70
2022/10/26 17:36:19;;;;;;;8.70;8.20;;;;;;;14.97;51.25;93553.13;5069778;28;20203;-70
2022/10/26 17:38:48;;;;;;;9.97;9.07;;;;;;;14.95;51.43;93549.19;5068691;28;20236;-70
2022/10/26 17:41:15;;;;;;;9.30;8.60;;;;;;;14.95;51.34;93541.31;5069466;28;20189;-71
2022/10/26 17:43:42;;;;;;;9.70;9.00;;;;;;;14.94;52.15;93550.28;5068689;28;21749;-70
2022/10/26 17:46:13;;;;;;;9.33;8.73;;;;;;;14.86;51.79;93559.56;5068879;28;20216;-71
2022/10/26 17:48:39;;;;;;;9.90;9.20;;;;;;;14.73;51.78;93539.22;5069040;28;20233;-71
2022/10/26 17:51:07;;;;;;;9.83;9.23;;;;;;;14.87;52.15;93557.72;5070508;28;20424;-71
2022/10/26 17:53:33;;;;;;;10.10;9.40;;;;;;;14.70;52.72;93558.19;5068795;28;20225;-70
2022/10/26 17:56:13;;;;;;;9.40;8.80;;;;;;;14.72;53.35;93557.91;5068932;28;20240;-70
2022/10/26 17:58:39;;;;;;;10.50;9.93;;;;;;;14.60;53.63;93555.66;5066670;28;20221;-70
2022/10/26 18:01:10;;;;;;;10.50;9.83;;;;;;;14.62;55.30;93563.25;5067736;28;20193;-68
2022/10/26 18:03:37;;;;;;;9.97;9.30;;;;;;;14.52;54.23;93548.41;5067701;28;20213;-66
2022/10/26 18:06:02;;;;;;;10.20;9.70;;;;;;;14.49;54.62;93554.97;5069738;28;20746;-67
2022/10/26 18:08:31;;;;;;;10.30;9.70;;;;;;;14.47;55.05;93559.72;5063194;28;20232;-66
2022/10/26 18:10:59;;;;;;;9.73;8.93;;;;;;;14.37;56.23;93549.34;5066947;28;20202;-66
2022/10/26 18:13:30;;;;;;;10.77;9.73;;;;;;;14.29;57.08;93552.56;5068203;28;20300;-66
2022/10/26 18:16:03;;;;;;;9.93;9.33;;;;;;;14.26;57.88;93566.25;5067768;28;20182;-66
2022/10/26 18:18:28;;;;;;;9.87;9.17;;;;;;;14.13;58.60;93561.59;5066809;28;20233;-66
2022/10/26 18:21:20;;;;;;;10.20;9.50;;;;;;;14.04;58.86;93560.63;5067747;28;20197;-69
2022/10/26 18:23:46;;;;;;;9.73;9.10;;;;;;;13.88;58.59;93551.31;5065116;28;20243;-67
2022/10/26 18:26:20;;;;;;;9.17;8.67;;;;;;;13.93;60.41;93567.03;5066936;28;20244;-67
2022/10/26 18:28:46;;;;;;;10.60;9.90;;;;;;;13.82;58.86;93560.28;5067926;28;20224;-66
2022/10/26 18:31:14;;;;;;;11.63;10.73;;;;;;;13.87;58.38;93570.75;5068896;28;20213;-67
2022/10/26 18:33:39;;;;;;;12.60;11.37;;;;;;;13.89;58.63;93566.03;5066946;28;20231;-66
2022/10/26 18:36:14;;;;;;;11.60;9.47;;;;;;;13.86;59.03;93576.28;5068093;28;20189;-67
2022/10/26 18:38:40;;;;;;;9.47;8.97;;;;;;;13.76;58.65;93566.63;5066600;28;20235;-67
2022/10/26 18:41:07;;;;;;;10.17;9.37;;;;;;;13.83;59.13;93577.63;5066304;28;20201;-66
2022/10/26 18:43:32;;;;;;;12.33;11.23;;;;;;;13.79;59.86;93581.84;5067825;28;20222;-67
2022/10/26 18:46:06;;;;;;;13.57;12.43;;;;;;;13.62;60.83;93576.19;5070186;28;20208;-67
2022/10/26 18:48:31;;;;;;;11.83;10.83;;;;;;;13.56;60.92;93581.75;5098578;28;20240;-68
2022/10/26 18:51:08;;;;;;;11.47;10.70;;;;;;;13.41;61.71;93580.00;5069515;28;20245;-66
2022/10/26 18:53:35;;;;;;;11.03;10.33;;;;;;;13.31;62.19;93585.31;5067365;28;20224;-66
2022/10/26 18:56:06;;;;;;;10.77;10.17;;;;;;;13.28;62.04;93585.84;5070260;28;20181;-68
2022/10/26 18:58:34;;;;;;;10.70;9.97;;;;;;;13.30;61.83;93589.00;5071008;28;20236;-65
2022/10/26 19:01:11;;;;;;;10.60;10.10;;;;;;;13.20;62.57;93590.88;5070643;28;20170;-67
2022/10/26 19:03:37;;;;;;;9.60;8.90;;;;;;;13.21;61.83;93595.88;5069669;28;20221;-68
2022/10/26 19:06:15;;;;;;;8.43;7.93;;;;;;;13.13;62.13;93588.56;5070225;28;20173;-68
2022/10/26 19:08:41;;;;;;;8.90;8.40;;;;;;;13.07;62.20;93594.09;5070520;28;20221;-68
2022/10/26 19:11:09;;;;;;;8.60;8.10;;;;;;;13.09;61.88;93608.47;5070735;28;20216;-66
2022/10/26 19:13:35;;;;;;;9.63;9.23;;;;;;;13.08;62.98;93600.88;5062058;28;20232;-67
2022/10/26 19:16:15;;;;;;;11.83;10.93;;;;;;;13.04;63.51;93610.34;5049260;28;20249;-66
2022/10/26 19:18:41;;;;;;;11.10;10.20;;;;;;;13.04;63.75;93623.47;5049646;28;20228;-67
2022/10/26 19:21:10;;;;;;;9.83;9.23;;;;;;;12.93;63.49;93610.34;5056176;28;20206;-67
2022/10/26 19:23:38;;;;;;;10.93;10.23;;;;;;;12.84;63.92;93606.72;5058456;28;20244;-66
2022/10/26 19:26:05;;;;;;;9.67;9.27;;;;;;;12.81;64.61;93609.88;5067119;28;20197;-66
2022/10/26 19:28:31;;;;;;;9.67;8.93;;;;;;;12.78;64.22;93612.25;5069389;28;20247;-66
2022/10/26 19:30:57;;;;;;;9.40;8.70;;;;;;;12.66;64.24;93601.28;5071164;28;20192;-66
2022/10/26 19:33:24;;;;;;;9.30;8.80;;;;;;;12.73;65.48;93620.13;5068560;28;20232;-66
2022/10/26 19:35:51;;;;;;;9.00;8.37;;;;;;;12.63;65.15;93625.38;5070380;28;20197;-70
2022/10/26 19:38:16;;;;;;;9.30;8.70;;;;;;;12.60;65.07;93610.19;5069644;28;20235;-67
2022/10/26 19:40:42;;;;;;;8.87;8.40;;;;;;;12.52;64.66;93629.06;5070796;28;20169;-67
2022/10/26 19:43:07;;;;;;;9.63;9.13;;;;;;;12.59;64.29;93633.00;5068329;28;20244;-68
2022/10/26 19:45:34;;;;;;;8.83;8.37;;;;;;;12.61;64.37;93632.72;5070943;28;20244;-67
2022/10/26 19:48:00;;;;;;;9.00;8.50;;;;;;;12.62;64.89;93629.06;5068626;28;20260;-64
2022/10/26 19:50:25;;;;;;;9.80;9.30;;;;;;;12.55;65.27;93631.97;5069401;28;20188;-65
2022/10/26 19:52:51;;;;;;;9.47;8.97;;;;;;;12.55;65.32;93631.16;5070124;28;20763;-65
2022/10/26 19:55:16;;;;;;;9.73;9.20;;;;;;;12.49;65.58;93632.22;5069231;28;20184;-66
2022/10/26 19:57:41;;;;;;;9.60;9.17;;;;;;;12.46;65.70;93630.13;5070235;28;20232;-67
2022/10/26 20:00:07;;;;;;;9.17;8.50;;;;;;;12.47;65.72;93637.72;5069661;28;20261;-68
2022/10/26 20:02:33;;;;;;;9.13;8.50;;;;;;;12.41;65.61;93640.63;5068572;28;20185;-70
2022/10/26 20:04:58;;;;;;;10.20;9.40;;;;;;;12.42;65.21;93640.34;5068905;28;20240;-69
2022/10/26 20:07:23;;;;;;;8.83;8.27;;;;;;;12.34;65.59;93650.59;5071584;28;20257;-68
2022/10/26 20:09:49;;;;;;;10.17;9.63;;;;;;;12.32;65.57;93642.19;5070181;28;20228;-69
2022/10/26 20:12:14;;;;;;;9.87;9.30;;;;;;;12.36;65.29;93653.72;5070983;28;20193;-69
2022/10/26 20:14:39;;;;;;;9.40;8.90;;;;;;;12.37;65.11;93647.44;5053084;28;20302;-68
2022/10/26 20:17:05;;;;;;;9.77;9.17;;;;;;;12.36;65.32;93653.72;5048847;28;20197;-70
2022/10/26 20:19:31;;;;;;;9.67;9.17;;;;;;;12.25;65.60;93657.41;5064614;28;20225;-69
2022/10/26 20:21:56;;;;;;;9.20;8.77;;;;;;;12.23;65.80;93649.03;5071624;28;20211;-68
2022/10/26 20:24:22;;;;;;;8.53;8.13;;;;;;;12.25;65.53;93657.41;5070167;28;20271;-68
2022/10/26 20:26:47;;;;;;;9.03;8.53;;;;;;;12.17;65.88;93665.78;5070261;28;20196;-68
2022/10/26 20:29:12;;;;;;;9.77;9.27;;;;;;;12.20;65.47;93657.41;5071411;28;20237;-68
2022/10/26 20:31:38;;;;;;;9.37;8.87;;;;;;;12.10;65.62;93658.19;5070384;28;20197;-68
2022/10/26 20:34:03;;;;;;;8.80;8.40;;;;;;;12.16;65.68;93669.44;5070106;28;20232;-68
2022/10/26 20:36:29;;;;;;;9.17;8.77;;;;;;;12.16;66.51;93672.03;5070332;28;20181;-68
2022/10/26 20:38:54;;;;;;;9.33;8.93;;;;;;;12.08;66.30;93670.75;5070467;28;20240;-69
2022/10/26 20:41:20;;;;;;;9.07;8.40;;;;;;;12.06;66.27;93682.53;5069736;28;20224;-69
2022/10/26 20:43:46;;;;;;;8.07;7.77;;;;;;;11.99;66.63;93687.22;5069981;28;20221;-69
2022/10/26 20:46:22;;;;;;;8.77;8.23;;;;;;;11.96;66.50;93685.13;5070530;28;20193;-69
2022/10/26 20:48:49;;;;;;;8.43;8.03;;;;;;;11.88;67.68;93685.63;5068325;28;20233;-68
2022/10/26 20:51:22;;;;;;;9.37;8.47;;;;;;;11.92;68.12;93692.69;5069766;28;20200;-69
2022/10/26 20:54:24;;;;;;;7.77;7.47;;;;;;;11.89;67.64;93698.47;5070189;28;20221;-69
2022/10/26 20:56:52;;;;;;;8.80;8.40;;;;;;;11.66;67.95;93688.47;5069726;28;20274;-69
2022/10/26 20:59:29;;;;;;;9.27;8.77;;;;;;;11.71;67.84;93700.78;5069732;28;20225;-71
2022/10/26 21:01:55;;;;;;;8.77;8.37;;;;;;;11.85;67.16;93704.47;5069822;28;20185;-70
2022/10/26 21:04:20;;;;;;;9.90;9.30;;;;;;;11.77;67.55;93708.38;5069081;28;20224;-67
2022/10/26 21:06:45;;;;;;;8.83;8.33;;;;;;;11.73;67.86;93706.53;5069997;28;20279;-69
2022/10/26 21:09:11;;;;;;;7.97;7.67;;;;;;;11.79;67.77;93700.28;5069992;28;20224;-68
2022/10/26 21:11:36;;;;;;;8.83;8.27;;;;;;;11.82;67.34;93713.63;5070054;28;20178;-68
2022/10/26 21:14:02;;;;;;;9.77;9.27;;;;;;;11.89;67.35;93713.38;5069729;28;20236;-68
2022/10/26 21:16:27;;;;;;;9.30;8.80;;;;;;;11.87;67.58;93713.66;5069468;28;20200;-67
2022/10/26 21:18:53;;;;;;;9.60;8.77;;;;;;;11.89;67.39;93713.38;5068949;28;20288;-67
2022/10/26 21:21:18;;;;;;;8.60;8.17;;;;;;;11.80;67.61;93714.94;5070298;28;20205;-68
2022/10/26 21:23:43;;;;;;;8.40;7.97;;;;;;;11.75;67.70;93713.06;5068770;28;20244;-67
2022/10/26 21:26:09;;;;;;;9.20;8.80;;;;;;;11.77;67.99;93716.22;5070635;28;20190;-67
2022/10/26 21:28:45;;;;;;;9.67;9.17;;;;;;;11.71;68.10;93721.69;5069273;28;20229;-69
2022/10/26 21:31:15;;;;;;;8.60;8.20;;;;;;;11.75;67.98;93713.06;5070436;28;20181;-67
2022/10/26 21:33:41;;;;;;;9.00;8.40;;;;;;;11.73;68.49;93723.03;5069628;28;20232;-67
2022/10/26 21:36:10;;;;;;;9.13;8.57;;;;;;;11.63;68.70;93723.00;5069509;28;20189;-68
2022/10/26 21:38:36;;;;;;;9.33;8.87;;;;;;;11.64;68.64;93715.94;5068614;28;20235;-69
2022/10/26 21:41:16;;;;;;;8.90;8.43;;;;;;;11.57;68.71;93710.91;5071590;28;20196;-70
2022/10/26 21:43:44;;;;;;;9.73;9.03;;;;;;;11.68;68.59;93711.75;5069476;28;20235;-67
2022/10/26 21:46:11;;;;;;;9.77;9.20;;;;;;;11.70;68.57;93717.53;5069678;28;20205;-68
2022/10/26 21:48:39;;;;;;;10.00;9.20;;;;;;;11.57;69.02;93710.13;5069151;28;20227;-68
2022/10/26 21:51:07;;;;;;;8.73;8.23;;;;;;;11.46;69.36;93696.22;5068750;28;20209;-67
2022/10/26 21:53:32;;;;;;;9.70;9.20;;;;;;;11.53;69.49;93707.25;5069701;28;20201;-67
2022/10/26 21:56:08;;;;;;;8.93;8.40;;;;;;;11.56;69.33;93704.13;5070005;28;20182;-68
2022/10/26 21:58:34;;;;;;;8.80;8.40;;;;;;;11.47;69.63;93710.09;5068642;28;20244;-68
2022/10/26 22:01:20;;;;;;;8.67;8.33;;;;;;;11.45;69.76;93699.09;5069557;28;20220;-67
2022/10/26 22:03:46;;;;;;;8.73;8.33;;;;;;;11.38;69.96;93687.06;5070175;28;20252;-68
2022/10/26 22:06:14;;;;;;;8.40;8.00;;;;;;;11.54;69.81;93700.19;5069796;28;20189;-70
2022/10/26 22:08:40;;;;;;;9.23;8.73;;;;;;;11.42;69.85;93697.00;5069049;28;20225;-69
2022/10/26 22:11:14;;;;;;;9.43;8.97;;;;;;;11.43;69.92;93693.34;5069691;28;20197;-69
2022/10/26 22:13:40;;;;;;;8.97;8.50;;;;;;;11.43;70.01;93675.03;5068472;28;20316;-69
2022/10/26 22:16:09;;;;;;;10.10;9.33;;;;;;;11.48;70.41;93686.31;5069754;28;20201;-69
2022/10/26 22:18:36;;;;;;;9.27;8.87;;;;;;;11.47;70.01;93683.94;5068478;28;20229;-69
2022/10/26 22:21:02;;;;;;;9.13;8.67;;;;;;;11.48;70.13;93680.28;5073697;28;20519;-68
2022/10/26 22:23:28;;;;;;;9.30;8.80;;;;;;;11.56;70.07;93685.03;5072472;28;20898;-68
2022/10/26 22:25:53;;;;;;;8.93;8.33;;;;;;;11.42;69.32;93635.06;5072827;28;20212;-70
2022/10/26 22:28:18;;;;;;;9.20;8.60;;;;;;;11.70;69.30;93667.81;5072821;28;20233;-69
2022/10/26 22:30:44;;;;;;;9.83;9.03;;;;;;;11.34;69.33;93618.03;5073354;28;20197;-68
2022/10/26 22:33:09;;;;;;;8.70;8.13;;;;;;;11.75;69.33;93673.84;5074627;28;20293;-69
2022/10/26 22:35:34;;;;;;;9.30;8.77;;;;;;;11.78;68.81;93660.22;5073283;28;20200;-69
2022/10/26 22:38:00;;;;;;;8.73;8.33;;;;;;;11.62;68.99;93644.75;5072942;28;20218;-69
2022/10/26 22:40:25;;;;;;;9.23;8.53;;;;;;;11.85;69.05;93675.69;5073714;28;20193;-69
2022/10/26 22:42:50;;;;;;;7.93;7.63;;;;;;;11.77;70.14;93684.84;5072372;28;20185;-69
2022/10/26 22:45:16;;;;;;;9.17;8.63;;;;;;;11.86;70.03;93683.28;5073407;28;20224;-69
2022/10/26 22:47:41;;;;;;;9.90;9.37;;;;;;;11.77;70.48;93686.66;5072229;28;20202;-69
2022/10/26 22:50:07;;;;;;;9.50;9.00;;;;;;;11.75;70.97;93680.91;5072911;28;20267;-69
2022/10/26 22:52:34;;;;;;;9.80;9.23;;;;;;;11.79;70.75;93687.19;5073402;28;20194;-69
2022/10/26 22:54:59;;;;;;;9.77;9.17;;;;;;;11.74;71.52;93705.50;5071968;28;20650;-69
2022/10/26 22:57:24;;;;;;;9.03;8.43;;;;;;;11.84;71.25;93702.91;5072690;28;20259;-68
2022/10/26 22:59:50;;;;;;;9.40;8.90;;;;;;;11.70;71.07;93694.78;5070582;28;20282;-68
2022/10/26 23:02:15;;;;;;;8.50;8.13;;;;;;;11.74;71.43;93703.66;5073651;28;20205;-69
2022/10/26 23:04:41;;;;;;;9.17;8.57;;;;;;;11.71;72.44;93708.63;5070106;28;20305;-69
2022/10/26 23:07:06;;;;;;;9.47;8.97;;;;;;;11.67;72.34;93711.00;5073082;28;20201;-71
2022/10/26 23:09:32;;;;;;;9.47;8.87;;;;;;;11.60;72.44;93709.59;5071081;28;20240;-69
2022/10/26 23:11:57;;;;;;;8.77;8.20;;;;;;;11.53;72.71;93698.63;5072688;28;20194;-69
2022/10/26 23:14:22;;;;;;;9.23;8.83;;;;;;;11.64;72.52;93714.13;5072527;28;20232;-69
2022/10/26 23:16:48;;;;;;;9.63;9.17;;;;;;;11.64;72.78;93711.50;5072661;28;20193;-69
2022/10/26 23:19:13;;;;;;;8.80;8.27;;;;;;;11.61;73.30;93714.56;5071627;28;20209;-70
2022/10/26 23:21:38;;;;;;;9.43;8.93;;;;;;;11.62;73.53;93702.28;5071534;28;20231;-69
2022/10/26 23:24:04;;;;;;;9.73;9.20;;;;;;;11.31;73.91;93673.44;5071411;28;20221;-69
2022/10/26 23:26:29;;;;;;;9.50;9.00;;;;;;;11.32;74.35;93693.31;5071943;28;20185;-70
2022/10/26 23:28:55;;;;;;;9.50;9.07;;;;;;;11.40;74.44;93692.03;5071742;28;20229;-69
2022/10/26 23:31:24;;;;;;;10.10;9.50;;;;;;;11.43;74.73;93706.41;5072839;28;20252;-67
2022/10/26 23:33:50;;;;;;;8.87;8.30;;;;;;;11.42;74.87;93712.69;5071203;28;20233;-70
2022/10/26 23:36:16;;;;;;;10.20;9.60;;;;;;;11.44;74.97;93711.38;5071865;28;20194;-69
2022/10/26 23:38:41;;;;;;;9.83;9.13;;;;;;;11.34;75.19;93691.25;5071712;28;20262;-69
2022/10/26 23:41:07;;;;;;;9.00;8.60;;;;;;;11.14;75.25;93667.63;5072044;28;20259;-69
2022/10/26 23:43:32;;;;;;;8.83;8.43;;;;;;;11.42;75.44;93707.47;5071008;28;20288;-70
2022/10/26 23:45:57;;;;;;;9.20;8.60;;;;;;;11.35;75.66;93703.25;5071268;28;20185;-69
2022/10/26 23:48:23;;;;;;;9.63;8.93;;;;;;;11.48;75.25;93712.47;5070711;28;20222;-69
2022/10/26 23:50:49;;;;;;;9.27;8.87;;;;;;;11.45;75.05;93712.19;5071189;28;20211;-68
2022/10/26 23:53:17;;;;;;;9.83;9.33;;;;;;;11.31;76.22;93720.47;5070579;28;20237;-68
2022/10/26 23:55:43;;;;;;;9.67;9.07;;;;;;;11.38;76.12;93712.41;5071534;28;20178;-69
2022/10/26 23:58:09;;;;;;;10.33;9.57;;;;;;;11.34;76.05;93717.38;5070447;28;20220;-69
